createdAt,value
2023-01-03T00:04:38.222Z,1.35
2023-01-03T00:09:41.092Z,1.00
2023-01-03T00:14:44.802Z,1.02
2023-01-03T00:19:48.902Z,1.40
2023-01-03T00:24:53.685Z,1.52
2023-01-03T00:29:56.612Z,1.88
2023-01-03T00:35:05.140Z,1.20
2023-01-03T00:40:09.753Z,3.10
2023-01-03T00:45:17.603Z,5.00
2023-01-03T00:50:23.764Z,2.92
2023-01-03T00:55:26.520Z,1.58
2023-01-03T01:00:29.925Z,1.35
2023-01-03T01:05:33.975Z,1.35
2023-01-03T01:10:36.781Z,1.10
2023-01-03T01:15:39.493Z,1.38
2023-01-03T01:20:43.688Z,4.05
2023-01-03T01:25:46.371Z,1.25
2023-01-03T01:30:49.219Z,1.25
2023-01-03T01:35:53.500Z,1.95
2023-01-03T01:40:56.959Z,1.63
2023-01-03T01:46:00.666Z,2.45
2023-01-03T01:51:04.908Z,2.40
2023-01-03T01:56:10.349Z,1.50
2023-01-03T02:01:14.705Z,0.98
2023-01-03T02:06:20.110Z,1.00
2023-01-03T02:11:29.084Z,1.40
2023-01-03T02:16:48.290Z,4.82
2023-01-03T02:22:09.851Z,1.17
2023-01-03T02:27:36.227Z,1.15
2023-01-03T02:32:44.589Z,1.98
2023-01-03T02:37:55.412Z,2.70
2023-01-03T02:43:02.894Z,1.27
2023-01-03T02:48:11.337Z,3.10
2023-01-03T02:53:16.544Z,1.58
2023-01-03T02:58:23.266Z,1.20
2023-01-03T03:03:29.982Z,1.48
2023-01-03T03:08:32.865Z,1.20
2023-01-03T03:13:38.513Z,1.05
2023-01-03T03:18:50.070Z,2.08
2023-01-03T03:24:11.873Z,2.53
2023-01-03T03:29:16.709Z,1.02
2023-01-03T03:34:22.696Z,1.50
2023-01-03T03:39:44.224Z,1.27
2023-01-03T03:45:03.396Z,1.30
2023-01-03T03:50:11.635Z,1.70
2023-01-03T03:55:18.035Z,2.08
2023-01-03T04:00:27.280Z,1.60
2023-01-03T04:05:33.892Z,1.63
2023-01-03T04:10:38.102Z,1.52
2023-01-03T04:15:41.080Z,2.67
2023-01-03T04:20:45.242Z,1.27
2023-01-03T04:25:49.058Z,1.38
2023-01-03T04:30:51.810Z,1.35
2023-01-03T04:35:55.926Z,1.77
2023-01-03T04:41:04.992Z,3.20
2023-01-03T04:46:07.881Z,1.60
2023-01-03T04:51:12.231Z,2.55
2023-01-03T04:56:14.942Z,1.52
2023-01-03T05:01:17.813Z,1.95
2023-01-03T05:06:22.002Z,2.95
2023-01-03T05:11:25.333Z,1.70
2023-01-03T05:16:28.290Z,1.95
2023-01-03T05:21:50.040Z,1.35
2023-01-03T05:26:53.410Z,5.43
2023-01-03T05:31:56.417Z,2.33
2023-01-03T05:37:00.622Z,3.13
2023-01-03T05:42:03.450Z,2.15
2023-01-03T05:47:06.630Z,1.67
2023-01-03T05:52:10.786Z,2.67
2023-01-03T05:57:13.937Z,1.70
2023-01-03T06:02:17.543Z,4.20
2023-01-03T06:07:21.760Z,2.00
2023-01-03T06:12:24.452Z,3.75
2023-01-03T06:17:44.716Z,3.78
2023-01-03T06:22:48.811Z,2.85
2023-01-03T06:27:51.816Z,1.85
2023-01-03T06:32:54.732Z,2.00
2023-01-03T06:37:59.612Z,3.00
2023-01-03T06:43:02.737Z,2.92
2023-01-03T06:48:23.671Z,2.97
2023-01-03T06:53:32.481Z,3.70
2023-01-03T06:58:35.825Z,3.40
2023-01-03T07:03:38.731Z,2.58
2023-01-03T07:08:48.111Z,3.45
2023-01-03T07:14:00.680Z,3.15
2023-01-03T07:19:03.872Z,4.78
2023-01-03T07:24:09.041Z,4.43
2023-01-03T07:29:11.913Z,2.67
2023-01-03T07:34:14.838Z,3.55
2023-01-03T07:39:19.049Z,5.90
2023-01-03T07:44:21.821Z,3.58
2023-01-03T07:49:26.091Z,5.25
2023-01-03T07:54:30.181Z,4.25
2023-01-03T07:59:32.981Z,3.15
2023-01-03T08:04:35.774Z,2.47
2023-01-03T08:09:57.718Z,1.98
2023-01-03T08:15:00.509Z,2.22
2023-01-03T08:20:03.279Z,2.75
2023-01-03T08:25:08.096Z,2.60
2023-01-03T08:30:12.000Z,5.20
2023-01-03T08:35:16.099Z,3.13
2023-01-03T08:40:20.509Z,4.07
2023-01-03T08:45:23.229Z,2.20
2023-01-03T08:50:26.482Z,2.40
2023-01-03T08:55:30.590Z,2.72
2023-01-03T09:00:33.341Z,2.25
2023-01-03T09:05:36.105Z,2.55
2023-01-03T09:10:47.635Z,1.88
2023-01-03T09:15:50.747Z,2.60
2023-01-03T09:20:53.504Z,2.45
2023-01-03T09:25:57.594Z,4.10
2023-01-03T09:31:00.345Z,2.58
2023-01-03T09:36:03.240Z,3.25
2023-01-03T09:41:09.959Z,3.30
2023-01-03T09:46:17.224Z,2.65
2023-01-03T09:51:39.775Z,2.60
2023-01-03T09:57:01.696Z,5.95
2023-01-03T10:02:37.011Z,1.67
2023-01-03T10:08:00.631Z,3.90
2023-01-03T10:13:17.813Z,1.95
2023-01-03T10:18:34.397Z,2.22
2023-01-03T10:23:37.208Z,0.90
2023-01-03T10:28:44.715Z,2.78
2023-01-03T10:33:48.391Z,1.20
2023-01-03T10:39:03.889Z,1.52
2023-01-03T10:44:08.022Z,1.35
2023-01-03T10:49:27.163Z,2.33
2023-01-03T10:54:48.345Z,1.67
2023-01-03T10:59:52.393Z,1.67
2023-01-03T11:05:12.271Z,2.30
2023-01-03T11:10:18.578Z,1.67
2023-01-03T11:15:39.080Z,3.90
2023-01-03T11:20:47.341Z,1.50
2023-01-03T11:25:56.083Z,3.33
2023-01-03T11:31:03.991Z,1.35
2023-01-03T11:36:24.039Z,2.28
2023-01-03T11:41:41.258Z,1.98
2023-01-03T11:46:55.577Z,3.25
2023-01-03T11:52:07.751Z,0.80
2023-01-03T11:57:15.931Z,1.42
2023-01-03T12:02:40.955Z,1.83
2023-01-03T12:07:52.615Z,1.08
2023-01-03T12:13:07.354Z,2.17
2023-01-03T12:18:18.303Z,3.08
2023-01-03T12:23:30.359Z,2.72
2023-01-03T12:28:37.646Z,1.67
2023-01-03T12:33:46.094Z,1.83
2023-01-03T12:38:53.453Z,1.15
2023-01-03T12:44:00.867Z,0.70
2023-01-03T12:49:08.726Z,1.15
2023-01-03T12:54:21.439Z,2.50
2023-01-03T12:59:36.844Z,1.98
2023-01-03T13:04:43.507Z,1.77
2023-01-03T13:09:49.673Z,2.75
2023-01-03T13:14:54.360Z,2.45
2023-01-03T13:20:00.325Z,0.85
2023-01-03T13:25:29.698Z,3.60
2023-01-03T13:30:34.181Z,1.05
2023-01-03T13:35:53.309Z,2.28
2023-01-03T13:46:24.874Z,1.05
2023-01-03T13:51:50.571Z,1.35
2023-01-03T13:57:03.952Z,1.67
2023-01-03T14:02:49.835Z,1.60
2023-01-03T14:08:13.883Z,0.80
2023-01-03T14:13:38.605Z,1.58
2023-01-03T14:18:42.604Z,3.35
2023-01-03T14:23:59.670Z,1.08
2023-01-03T14:29:03.818Z,1.73
2023-01-03T14:34:07.988Z,0.68
2023-01-03T14:39:21.792Z,1.10
2023-01-03T14:44:24.569Z,1.95
2023-01-03T14:49:45.334Z,0.95
2023-01-03T14:54:51.841Z,1.25
2023-01-03T14:59:56.109Z,2.15
2023-01-03T15:04:59.596Z,1.90
2023-01-03T15:10:06.755Z,1.23
2023-01-03T15:15:18.591Z,3.67
2023-01-03T15:20:25.190Z,2.47
2023-01-03T15:25:35.278Z,1.52
2023-01-03T15:30:47.385Z,1.38
2023-01-03T15:35:51.307Z,0.70
2023-01-03T15:40:55.671Z,1.42
2023-01-03T15:46:04.013Z,1.20
2023-01-03T15:51:07.359Z,2.10
2023-01-03T15:56:17.392Z,2.78
2023-01-03T16:01:21.164Z,3.65
2023-01-03T16:06:24.076Z,6.45
2023-01-03T16:11:34.244Z,10.07
2023-01-03T16:16:39.480Z,6.03
2023-01-03T16:21:51.564Z,21.85
2023-01-03T16:27:14.163Z,11.43
2023-01-03T16:32:19.756Z,12.45
2023-01-03T16:37:22.835Z,7.82
2023-01-03T16:42:28.405Z,6.60
2023-01-03T16:47:33.628Z,7.15
2023-01-03T16:52:39.397Z,7.15
2023-01-03T16:57:46.276Z,7.32
2023-01-03T17:02:54.425Z,7.80
2023-01-03T17:08:03.973Z,4.95
2023-01-03T17:13:12.889Z,3.63
2023-01-03T17:18:19.153Z,4.13
2023-01-03T17:23:22.405Z,3.45
2023-01-03T17:28:26.496Z,2.83
2023-01-03T17:33:33.970Z,3.83
2023-01-03T17:38:37.153Z,2.55
2023-01-03T17:43:41.177Z,2.42
2023-01-03T17:49:01.530Z,2.10
2023-01-03T17:54:05.336Z,1.77
2023-01-03T17:59:12.680Z,2.42
2023-01-03T18:04:15.534Z,2.42
2023-01-03T18:09:19.473Z,2.33
2023-01-03T18:14:23.727Z,3.00
2023-01-03T18:19:26.474Z,2.67
2023-01-03T18:24:31.083Z,1.13
2023-01-03T18:29:35.177Z,2.63
2023-01-03T18:34:37.936Z,1.90
2023-01-03T18:39:40.967Z,1.90
2023-01-03T18:44:45.875Z,1.33
2023-01-03T18:49:48.742Z,1.85
2023-01-03T18:54:52.117Z,1.63
2023-01-03T18:59:58.373Z,4.95
2023-01-03T19:05:01.154Z,2.83
2023-01-03T19:10:05.900Z,3.75
2023-01-03T19:15:17.959Z,2.50
2023-01-03T19:20:26.570Z,3.58
2023-01-03T19:25:31.292Z,3.85
2023-01-03T19:30:38.589Z,4.45
2023-01-03T19:35:41.387Z,1.60
2023-01-03T19:40:45.217Z,3.17
2023-01-03T19:45:50.057Z,2.15
2023-01-03T19:50:53.794Z,2.00
2023-01-03T19:55:56.587Z,2.42
2023-01-03T20:01:01.054Z,2.72
2023-01-03T20:06:03.758Z,4.20
2023-01-03T20:11:06.959Z,3.00
2023-01-03T20:16:11.844Z,3.53
2023-01-03T20:21:22.611Z,4.70
2023-01-03T20:26:27.711Z,2.72
2023-01-03T20:31:32.002Z,2.75
2023-01-03T20:36:40.096Z,3.78
2023-01-03T20:41:42.883Z,2.50
2023-01-03T20:46:47.143Z,2.95
2023-01-03T20:51:49.940Z,2.53
2023-01-03T20:56:52.666Z,5.65
2023-01-03T21:01:57.226Z,2.72
2023-01-03T21:07:00.352Z,5.57
2023-01-03T21:12:04.680Z,2.88
2023-01-03T21:17:11.596Z,4.00
2023-01-03T21:22:19.994Z,3.65
2023-01-03T21:27:22.728Z,2.90
2023-01-03T21:32:26.924Z,2.40
2023-01-03T21:37:29.800Z,3.38
2023-01-03T21:42:50.216Z,2.45
2023-01-03T21:47:54.297Z,3.35
2023-01-03T21:52:57.187Z,3.70
2023-01-03T21:58:00.386Z,3.05
2023-01-03T22:03:21.785Z,3.47
2023-01-03T22:08:24.583Z,2.92
2023-01-03T22:13:27.314Z,3.20
2023-01-03T22:18:31.585Z,2.25
2023-01-03T22:23:35.020Z,3.35
2023-01-03T22:28:38.856Z,3.25
2023-01-03T22:33:43.132Z,3.13
2023-01-03T22:38:45.952Z,2.45
2023-01-03T22:43:48.658Z,2.90
2023-01-03T22:48:53.187Z,4.18
2023-01-03T22:53:56.983Z,2.67
2023-01-03T22:58:59.756Z,6.00
2023-01-03T23:04:06.595Z,2.80
2023-01-03T23:09:09.571Z,3.35
2023-01-03T23:14:14.803Z,3.83
2023-01-03T23:19:20.524Z,3.40
2023-01-03T23:24:25.091Z,3.90
2023-01-03T23:29:27.973Z,2.97
2023-01-03T23:34:36.206Z,4.17
2023-01-03T23:39:39.747Z,4.23
2023-01-03T23:44:42.547Z,4.15
2023-01-03T23:49:46.764Z,3.22
2023-01-03T23:54:53.359Z,3.45
2023-01-03T23:59:58.976Z,3.50
